createdAt,value
2023-04-06T00:01:36.768Z,48.68
2023-04-06T00:04:04.639Z,48.82
2023-04-06T00:06:32.823Z,48.75
2023-04-06T00:09:00.726Z,48.77
2023-04-06T00:11:28.486Z,48.62
2023-04-06T00:13:57.630Z,48.72
2023-04-06T00:16:26.537Z,48.59
2023-04-06T00:18:55.730Z,48.40
2023-04-06T00:21:23.528Z,48.50
2023-04-06T00:23:51.181Z,48.22
2023-04-06T00:26:18.830Z,47.72
2023-04-06T00:28:46.481Z,48.23
2023-04-06T00:31:15.637Z,48.31
2023-04-06T00:33:43.343Z,48.45
2023-04-06T00:36:11.276Z,48.68
2023-04-06T00:38:38.940Z,48.50
2023-04-06T00:41:06.729Z,49.05
2023-04-06T00:43:34.454Z,48.64
2023-04-06T00:46:02.202Z,48.61
2023-04-06T00:48:32.263Z,48.77
2023-04-06T00:51:00.313Z,48.99
2023-04-06T00:53:27.922Z,48.71
2023-04-06T00:56:27.163Z,49.38
2023-04-06T00:58:54.978Z,48.91
2023-04-06T01:01:22.586Z,48.78
2023-04-06T01:03:51.303Z,48.93
2023-04-06T01:06:18.980Z,48.88
2023-04-06T01:08:46.898Z,49.03
2023-04-06T01:11:14.857Z,48.66
2023-04-06T01:13:43.869Z,48.92
2023-04-06T01:16:11.767Z,48.86
2023-04-06T01:18:40.621Z,49.04
2023-04-06T01:21:09.678Z,48.64
2023-04-06T01:23:38.651Z,49.21
2023-04-06T01:26:06.436Z,49.02
2023-04-06T01:28:34.090Z,49.00
2023-04-06T01:31:01.989Z,49.27
2023-04-06T01:33:29.791Z,49.15
2023-04-06T01:35:57.716Z,49.25
2023-04-06T01:38:25.502Z,49.51
2023-04-06T01:40:54.609Z,49.25
2023-04-06T01:43:22.435Z,49.86
2023-04-06T01:45:49.990Z,49.41
2023-04-06T01:48:17.705Z,50.00
2023-04-06T01:50:45.611Z,49.88
2023-04-06T01:53:13.471Z,49.87
2023-04-06T01:55:41.073Z,49.94
2023-04-06T01:58:10.623Z,50.43
2023-04-06T02:00:38.235Z,50.40
2023-04-06T02:03:06.241Z,50.55
2023-04-06T02:05:38.703Z,50.59
2023-04-06T02:08:06.823Z,50.44
2023-04-06T02:10:34.764Z,50.61
2023-04-06T02:13:02.790Z,50.74
2023-04-06T02:15:31.716Z,50.97
2023-04-06T02:17:59.520Z,50.78
2023-04-06T02:20:27.123Z,50.73
2023-04-06T02:22:54.652Z,50.58
2023-04-06T02:25:22.271Z,50.47
2023-04-06T02:27:49.773Z,50.85
2023-04-06T02:30:17.290Z,51.02
2023-04-06T02:32:46.206Z,51.20
2023-04-06T02:35:13.975Z,50.94
2023-04-06T02:37:41.508Z,51.12
2023-04-06T02:40:10.495Z,51.24
2023-04-06T02:42:38.007Z,51.63
2023-04-06T02:45:06.630Z,51.80
2023-04-06T02:47:34.847Z,51.84
2023-04-06T02:50:03.954Z,52.15
2023-04-06T02:52:31.464Z,51.96
2023-04-06T02:54:59.063Z,51.92
2023-04-06T02:57:26.588Z,51.87
2023-04-06T02:59:54.100Z,52.10
2023-04-06T03:02:21.758Z,52.08
2023-04-06T03:04:49.319Z,51.99
2023-04-06T03:07:18.208Z,52.06
2023-04-06T03:09:46.234Z,52.12
2023-04-06T03:12:13.754Z,51.96
2023-04-06T03:14:41.312Z,52.20
2023-04-06T03:17:08.819Z,51.97
2023-04-06T03:19:36.372Z,51.94
2023-04-06T03:22:04.041Z,51.80
2023-04-06T03:24:32.925Z,51.83
2023-04-06T03:27:01.181Z,51.83
2023-04-06T03:29:29.019Z,51.92
2023-04-06T03:31:56.578Z,51.76
2023-04-06T03:34:24.073Z,51.89
2023-04-06T03:37:02.898Z,51.95
2023-04-06T03:39:38.032Z,52.29
2023-04-06T03:42:05.838Z,52.18
2023-04-06T03:44:33.747Z,52.28
2023-04-06T03:47:01.875Z,52.25
2023-04-06T03:49:29.387Z,52.26
2023-04-06T03:51:58.282Z,52.55
2023-04-06T03:54:25.921Z,52.42
2023-04-06T03:56:54.779Z,52.45
2023-04-06T03:59:22.397Z,52.36
2023-04-06T04:01:49.999Z,52.12
2023-04-06T04:04:17.507Z,52.25
2023-04-06T04:06:45.078Z,51.87
2023-04-06T04:09:12.679Z,52.08
2023-04-06T04:11:40.334Z,52.32
2023-04-06T04:14:09.162Z,52.06
2023-04-06T04:16:36.731Z,51.98
2023-04-06T04:19:04.353Z,52.07
2023-04-06T04:21:32.280Z,51.86
2023-04-06T04:23:59.953Z,51.93
2023-04-06T04:26:27.722Z,51.91
2023-04-06T04:28:55.215Z,51.56
2023-04-06T04:31:24.325Z,51.84
2023-04-06T04:33:51.920Z,51.74
2023-04-06T04:36:19.455Z,51.70
2023-04-06T04:38:46.982Z,51.67
2023-04-06T04:41:14.538Z,51.93
2023-04-06T04:43:42.032Z,52.03
2023-04-06T04:46:09.569Z,52.14
2023-04-06T04:48:39.860Z,52.32
2023-04-06T04:51:08.148Z,52.30
2023-04-06T04:53:35.816Z,52.40
2023-04-06T04:56:03.372Z,52.66
2023-04-06T04:58:31.304Z,53.00
2023-04-06T05:00:58.849Z,53.15
2023-04-06T05:03:28.456Z,53.43
2023-04-06T05:05:57.584Z,53.41
2023-04-06T05:08:25.171Z,53.58
2023-04-06T05:10:52.808Z,53.54
2023-04-06T05:13:20.577Z,53.56
2023-04-06T05:15:48.181Z,53.51
2023-04-06T05:18:15.847Z,53.52
2023-04-06T05:20:44.530Z,53.68
2023-04-06T05:23:13.805Z,53.62
2023-04-06T05:25:41.688Z,53.53
2023-04-06T05:28:09.306Z,53.37
2023-04-06T05:30:37.072Z,53.52
2023-04-06T05:33:04.779Z,53.40
2023-04-06T05:35:32.343Z,53.26
2023-04-06T05:37:59.941Z,53.51
2023-04-06T05:40:28.847Z,53.50
2023-04-06T05:42:56.402Z,53.52
2023-04-06T05:45:23.971Z,53.32
2023-04-06T05:47:51.619Z,53.43
2023-04-06T05:50:19.312Z,53.13
2023-04-06T05:52:47.436Z,53.02
2023-04-06T05:55:15.016Z,53.23
2023-04-06T05:57:43.880Z,52.93
2023-04-06T06:00:12.919Z,52.94
2023-04-06T06:02:43.124Z,52.64
2023-04-06T06:05:10.880Z,52.46
2023-04-06T06:07:38.465Z,52.67
2023-04-06T06:10:06.500Z,52.37
2023-04-06T06:12:34.043Z,52.48
2023-04-06T06:15:02.901Z,52.62
2023-04-06T06:17:30.401Z,51.89
2023-04-06T06:19:57.991Z,52.08
2023-04-06T06:22:25.565Z,51.88
2023-04-06T06:24:53.089Z,51.80
2023-04-06T06:27:20.758Z,51.86
2023-04-06T06:29:48.302Z,51.50
2023-04-06T06:32:17.267Z,51.23
2023-04-06T06:34:44.776Z,51.32
2023-04-06T06:37:12.322Z,51.02
2023-04-06T06:39:39.951Z,50.60
2023-04-06T06:42:07.714Z,50.70
2023-04-06T06:44:35.252Z,51.01
2023-04-06T06:47:03.150Z,50.56
2023-04-06T06:49:31.998Z,50.04
2023-04-06T06:51:59.488Z,49.63
2023-04-06T06:54:27.060Z,49.66
2023-04-06T06:56:55.285Z,49.62
2023-04-06T06:59:23.040Z,50.09
2023-04-06T07:01:52.173Z,50.10
2023-04-06T07:04:19.806Z,49.49
2023-04-06T07:06:48.756Z,49.50
2023-04-06T07:09:16.290Z,49.49
2023-04-06T07:11:43.809Z,48.79
2023-04-06T07:14:12.545Z,49.40
2023-04-06T07:16:40.223Z,49.50
2023-04-06T07:19:07.859Z,48.44
2023-04-06T07:21:35.372Z,48.81
2023-04-06T07:24:04.326Z,47.51
2023-04-06T07:26:31.915Z,47.19
2023-04-06T07:28:59.721Z,47.24
2023-04-06T07:31:27.255Z,46.29
2023-04-06T07:33:54.787Z,45.95
2023-04-06T07:36:22.533Z,45.71
2023-04-06T07:38:50.110Z,45.36
2023-04-06T07:41:19.033Z,45.03
2023-04-06T07:43:46.557Z,44.86
2023-04-06T07:46:14.150Z,43.63
2023-04-06T07:48:41.759Z,43.39
2023-04-06T07:51:11.340Z,42.37
2023-04-06T07:53:38.871Z,41.72
2023-04-06T07:56:06.734Z,40.57
2023-04-06T07:58:35.605Z,39.49
2023-04-06T08:01:03.239Z,40.67
2023-04-06T08:03:31.264Z,39.47
2023-04-06T08:05:59.004Z,36.64
2023-04-06T08:08:26.758Z,32.34
2023-04-06T08:10:54.370Z,29.98
2023-04-06T08:13:21.986Z,28.04
2023-04-06T08:15:51.088Z,26.18
2023-04-06T08:18:18.840Z,25.35
2023-04-06T08:20:46.661Z,25.08
2023-04-06T08:23:14.212Z,23.97
2023-04-06T08:25:41.838Z,23.62
2023-04-06T08:28:10.382Z,22.25
2023-04-06T08:30:38.232Z,22.05
2023-04-06T08:33:07.385Z,21.98
2023-04-06T08:35:35.030Z,20.64
2023-04-06T08:38:02.671Z,20.29
2023-04-06T08:40:30.445Z,19.70
2023-04-06T08:42:58.759Z,19.16
2023-04-06T08:45:26.638Z,18.85
2023-04-06T08:47:55.821Z,18.84
2023-04-06T08:50:27.091Z,18.77
2023-04-06T08:52:54.692Z,18.75
2023-04-06T08:55:23.485Z,17.21
2023-04-06T08:57:54.430Z,16.39
2023-04-06T09:00:22.522Z,17.06
2023-04-06T09:02:52.119Z,16.44
2023-04-06T09:05:20.705Z,16.68
2023-04-06T09:07:49.828Z,16.92
2023-04-06T09:10:18.824Z,16.92
2023-04-06T09:12:46.396Z,16.68
2023-04-06T09:15:23.579Z,16.93
2023-04-06T09:17:54.871Z,17.46
2023-04-06T09:20:26.862Z,17.80
2023-04-06T09:22:57.040Z,17.72
2023-04-06T09:25:27.352Z,18.72
2023-04-06T09:28:01.904Z,17.70
2023-04-06T09:30:29.456Z,19.57
2023-04-06T09:32:58.480Z,18.71
2023-04-06T09:35:27.575Z,18.60
2023-04-06T09:37:57.468Z,20.00
2023-04-06T09:40:25.321Z,19.82
2023-04-06T09:42:55.332Z,21.75
2023-04-06T09:45:23.045Z,20.22
2023-04-06T09:47:52.545Z,20.29
2023-04-06T09:50:21.584Z,19.45
2023-04-06T09:52:52.087Z,20.32
2023-04-06T09:55:27.703Z,20.14
2023-04-06T09:58:03.182Z,19.48
2023-04-06T10:00:34.252Z,20.47
2023-04-06T10:03:13.367Z,19.93
2023-04-06T10:05:48.570Z,20.54
2023-04-06T10:08:17.303Z,20.32
2023-04-06T10:10:47.104Z,20.21
2023-04-06T10:13:14.681Z,20.64
2023-04-06T10:15:43.772Z,20.49
2023-04-06T10:18:11.533Z,20.34
2023-04-06T10:20:44.037Z,20.61
2023-04-06T10:23:16.845Z,21.03
2023-04-06T10:25:56.444Z,21.42
2023-04-06T10:28:24.878Z,20.12
2023-04-06T10:30:59.959Z,21.21
2023-04-06T10:33:27.968Z,20.26
2023-04-06T10:35:56.511Z,19.81
2023-04-06T10:38:37.084Z,19.18
2023-04-06T10:41:08.512Z,20.17
2023-04-06T10:43:37.620Z,20.21
2023-04-06T10:46:07.103Z,22.08
2023-04-06T10:48:42.443Z,22.19
2023-04-06T10:51:12.092Z,20.97
2023-04-06T10:53:40.144Z,22.25
2023-04-06T10:56:12.822Z,21.20
2023-04-06T10:58:45.846Z,21.62
2023-04-06T11:01:13.665Z,21.33
2023-04-06T11:03:47.409Z,21.72
2023-04-06T11:06:20.649Z,20.74
2023-04-06T11:08:48.212Z,21.61
2023-04-06T11:11:19.398Z,20.95
2023-04-06T11:13:51.718Z,21.38
2023-04-06T11:16:20.605Z,22.32
2023-04-06T11:18:56.598Z,22.11
2023-04-06T11:21:35.700Z,21.71
2023-04-06T11:24:10.784Z,21.09
2023-04-06T11:26:45.453Z,22.05
2023-04-06T11:29:14.133Z,22.60
2023-04-06T11:31:43.620Z,22.73
2023-04-06T11:34:12.382Z,23.23
2023-04-06T11:36:43.239Z,22.90
2023-04-06T11:39:12.078Z,22.68
2023-04-06T11:41:39.702Z,23.50
2023-04-06T11:44:08.800Z,22.94
2023-04-06T11:46:36.804Z,23.32
2023-04-06T11:49:04.641Z,23.24
2023-04-06T11:51:32.218Z,23.33
2023-04-06T11:53:59.817Z,23.87
2023-04-06T11:56:29.103Z,22.81
2023-04-06T11:58:57.780Z,22.93
2023-04-06T12:01:27.419Z,23.32
2023-04-06T12:03:56.081Z,23.19
2023-04-06T12:06:23.763Z,22.64
2023-04-06T12:08:51.459Z,22.81
2023-04-06T12:11:20.860Z,23.46
2023-04-06T12:13:48.502Z,23.07
2023-04-06T12:16:16.154Z,22.90
2023-04-06T12:18:45.315Z,23.78
2023-04-06T12:21:12.849Z,23.89
2023-04-06T12:23:40.465Z,23.79
2023-04-06T12:26:13.191Z,23.54
2023-04-06T12:28:41.338Z,23.18
2023-04-06T12:31:16.740Z,22.81
2023-04-06T12:33:46.327Z,23.55
2023-04-06T12:36:14.638Z,23.53
2023-04-06T12:38:42.418Z,23.84
2023-04-06T12:41:10.003Z,23.46
2023-04-06T12:43:37.556Z,23.37
2023-04-06T12:46:05.532Z,23.40
2023-04-06T12:48:33.727Z,23.24
2023-04-06T12:51:04.939Z,23.67
2023-04-06T12:53:33.445Z,23.40
2023-04-06T12:56:02.454Z,23.85
2023-04-06T12:58:30.518Z,23.87
2023-04-06T13:01:03.844Z,23.66
2023-04-06T13:03:31.771Z,22.79
2023-04-06T13:06:02.924Z,23.44
2023-04-06T13:08:30.730Z,23.99
2023-04-06T13:10:58.510Z,24.03
2023-04-06T13:13:27.435Z,23.86
2023-04-06T13:15:56.487Z,24.24
2023-04-06T13:18:25.548Z,24.12
2023-04-06T13:20:53.148Z,24.93
2023-04-06T13:23:22.138Z,24.79
2023-04-06T13:25:49.720Z,24.74
2023-04-06T13:28:17.335Z,23.73
2023-04-06T13:30:45.400Z,24.11
2023-04-06T13:33:15.829Z,24.78
2023-04-06T13:35:48.450Z,24.37
2023-04-06T13:38:16.234Z,24.50
2023-04-06T13:40:45.489Z,24.30
2023-04-06T13:43:13.054Z,24.28
2023-04-06T13:45:41.093Z,24.36
2023-04-06T13:48:08.961Z,24.43
2023-04-06T13:50:36.760Z,24.87
2023-04-06T13:53:04.298Z,24.66
2023-04-06T13:55:32.267Z,24.36
2023-04-06T13:58:01.266Z,24.91
2023-04-06T14:00:28.927Z,24.62
2023-04-06T14:02:56.963Z,23.89
2023-04-06T14:05:24.772Z,23.97
2023-04-06T14:07:52.356Z,24.33
2023-04-06T14:10:22.148Z,24.06
2023-04-06T14:12:49.707Z,24.08
2023-04-06T14:15:23.268Z,24.15
2023-04-06T14:25:56.635Z,24.35
2023-04-06T14:31:50.095Z,24.92
2023-04-06T14:34:35.806Z,24.73
2023-04-06T14:37:09.046Z,24.68
2023-04-06T14:47:40.640Z,24.79
2023-04-06T14:50:38.028Z,24.74
2023-04-06T14:56:12.020Z,25.49
2023-04-06T14:59:02.690Z,25.41
2023-04-06T15:02:30.587Z,25.31
2023-04-06T15:08:53.729Z,25.32
2023-04-06T15:11:21.498Z,25.29
2023-04-06T15:13:49.990Z,25.07
2023-04-06T15:16:17.700Z,24.95
2023-04-06T15:18:45.333Z,25.11
2023-04-06T15:26:45.452Z,25.23
2023-04-06T15:29:13.013Z,25.51
2023-04-06T15:34:24.334Z,25.16
2023-04-06T15:54:18.849Z,25.30
2023-04-06T16:04:44.618Z,24.47
2023-04-06T16:14:37.220Z,25.93
2023-04-06T16:18:01.354Z,26.76
2023-04-06T16:20:49.278Z,26.49
2023-04-06T16:23:17.971Z,25.96
2023-04-06T16:25:47.030Z,25.64
2023-04-06T16:28:15.982Z,25.29
2023-04-06T16:30:47.518Z,25.29
2023-04-06T16:33:19.253Z,25.48
2023-04-06T16:35:49.996Z,25.58
2023-04-06T16:38:18.070Z,26.75
2023-04-06T16:40:50.008Z,25.99
2023-04-06T16:43:26.268Z,26.33
2023-04-06T16:45:55.337Z,26.24
2023-04-06T16:48:43.723Z,25.81
2023-04-06T16:56:19.085Z,26.64
2023-04-06T17:03:09.767Z,27.13
2023-04-06T17:05:41.902Z,26.36
2023-04-06T17:08:23.969Z,27.11
2023-04-06T17:11:07.589Z,26.42
2023-04-06T17:13:35.386Z,27.21
2023-04-06T17:16:03.532Z,26.47
2023-04-06T17:18:31.048Z,27.14
2023-04-06T17:21:00.287Z,27.83
2023-04-06T17:23:27.769Z,27.91
2023-04-06T17:25:57.429Z,27.63
2023-04-06T17:28:25.311Z,28.67
2023-04-06T17:30:53.016Z,27.88
2023-04-06T17:33:22.152Z,27.43
2023-04-06T17:35:49.821Z,26.99
2023-04-06T17:38:19.570Z,27.58
2023-04-06T17:40:47.142Z,28.15
2023-04-06T17:43:14.736Z,27.58
2023-04-06T17:45:42.279Z,27.16
2023-04-06T17:48:09.788Z,27.48
2023-04-06T17:50:38.900Z,27.70
2023-04-06T17:53:06.853Z,27.06
2023-04-06T17:55:35.797Z,27.56
2023-04-06T17:58:03.670Z,27.17
2023-04-06T18:00:31.335Z,27.52
2023-04-06T18:02:59.024Z,28.28
2023-04-06T18:05:27.009Z,30.06
2023-04-06T18:07:55.443Z,31.17
2023-04-06T18:10:23.189Z,31.49
2023-04-06T18:12:52.245Z,32.46
2023-04-06T18:15:19.771Z,32.72
2023-04-06T18:17:47.343Z,33.09
2023-04-06T18:20:15.837Z,33.21
2023-04-06T18:22:43.606Z,33.39
2023-04-06T18:25:12.870Z,33.50
2023-04-06T18:27:40.369Z,33.85
2023-04-06T18:30:12.970Z,34.15
2023-04-06T18:32:40.920Z,34.01
2023-04-06T18:35:11.249Z,34.02
2023-04-06T18:37:38.777Z,33.63
2023-04-06T18:40:07.602Z,33.77
2023-04-06T18:42:35.117Z,33.77
2023-04-06T18:45:02.837Z,33.76
2023-04-06T18:47:31.701Z,34.12
2023-04-06T18:49:59.246Z,34.11
2023-04-06T18:52:27.007Z,34.36
2023-04-06T18:54:54.490Z,34.91
2023-04-06T18:57:22.014Z,34.67
2023-04-06T18:59:49.582Z,34.92
2023-04-06T19:02:17.116Z,34.86
2023-04-06T19:04:46.164Z,34.75
2023-04-06T19:07:13.763Z,34.99
2023-04-06T19:09:41.458Z,35.09
2023-04-06T19:12:08.958Z,35.43
2023-04-06T19:14:36.504Z,35.27
2023-04-06T19:17:04.073Z,35.63
2023-04-06T19:19:31.576Z,37.52
2023-04-06T19:22:00.668Z,36.46
2023-04-06T19:24:28.167Z,36.02
2023-04-06T19:26:55.709Z,36.29
2023-04-06T19:29:24.469Z,36.37
2023-04-06T19:31:52.192Z,36.62
2023-04-06T19:34:19.799Z,36.89
2023-04-06T19:36:47.557Z,36.72
2023-04-06T19:39:17.874Z,37.05
2023-04-06T19:41:45.365Z,36.87
2023-04-06T19:44:13.098Z,37.07
2023-04-06T19:46:40.636Z,37.53
2023-04-06T19:49:08.182Z,37.45
2023-04-06T19:51:36.199Z,37.70
2023-04-06T19:54:04.150Z,38.17
2023-04-06T19:56:33.152Z,38.45
2023-04-06T19:59:01.575Z,38.23
2023-04-06T20:01:29.213Z,38.73
2023-04-06T20:03:56.904Z,38.88
2023-04-06T20:06:24.503Z,38.94
2023-04-06T20:08:52.073Z,39.15
2023-04-06T20:11:19.676Z,39.63
2023-04-06T20:13:48.667Z,39.71
2023-04-06T20:16:16.366Z,39.75
2023-04-06T20:18:43.901Z,39.93
2023-04-06T20:21:11.565Z,40.05
2023-04-06T20:23:39.115Z,39.91
2023-04-06T20:26:10.354Z,40.05
2023-04-06T20:28:39.367Z,40.11
2023-04-06T20:31:08.332Z,40.62
2023-04-06T20:33:36.357Z,40.38
2023-04-06T20:36:04.323Z,40.62
2023-04-06T20:38:33.960Z,40.52
2023-04-06T20:41:02.039Z,40.94
2023-04-06T20:43:31.462Z,41.44
2023-04-06T20:46:01.684Z,42.41
2023-04-06T20:48:35.931Z,41.60
2023-04-06T20:51:04.020Z,41.01
2023-04-06T20:53:31.795Z,40.69
2023-04-06T20:55:59.291Z,41.05
2023-04-06T20:58:27.073Z,41.28
2023-04-06T21:00:54.556Z,41.17
2023-04-06T21:03:22.248Z,41.01
2023-04-06T21:05:57.240Z,41.57
2023-04-06T21:08:24.812Z,41.06
2023-04-06T21:10:52.320Z,41.51
2023-04-06T21:13:19.829Z,41.46
2023-04-06T21:15:47.368Z,41.59
2023-04-06T21:18:14.932Z,42.05
2023-04-06T21:20:42.428Z,42.21
2023-04-06T21:23:11.985Z,42.66
2023-04-06T21:25:39.747Z,42.45
2023-04-06T21:28:07.315Z,42.60
2023-04-06T21:30:37.033Z,42.35
2023-04-06T21:33:04.926Z,42.51
2023-04-06T21:35:32.494Z,42.70
2023-04-06T21:38:00.373Z,42.78
2023-04-06T21:40:29.319Z,43.20
2023-04-06T21:42:56.868Z,43.18
2023-04-06T21:45:24.429Z,43.24
2023-04-06T21:47:52.191Z,43.38
2023-04-06T21:50:19.737Z,43.37
2023-04-06T21:52:47.327Z,43.64
2023-04-06T21:55:15.149Z,43.37
2023-04-06T21:57:44.859Z,43.69
2023-04-06T22:00:13.530Z,42.97
2023-04-06T22:02:41.290Z,42.79
2023-04-06T22:05:09.525Z,42.94
2023-04-06T22:07:37.078Z,42.84
2023-04-06T22:10:05.129Z,43.45
2023-04-06T22:12:32.670Z,43.58
2023-04-06T22:15:01.521Z,44.03
2023-04-06T22:17:29.105Z,44.19
2023-04-06T22:19:56.772Z,44.41
2023-04-06T22:22:25.627Z,44.34
2023-04-06T22:24:53.214Z,44.49
2023-04-06T22:27:20.720Z,43.96
2023-04-06T22:29:48.205Z,43.87
2023-04-06T22:32:17.100Z,44.09
2023-04-06T22:34:44.717Z,44.48
2023-04-06T22:37:12.199Z,44.75
2023-04-06T22:39:39.707Z,44.63
2023-04-06T22:42:07.233Z,44.92
2023-04-06T22:44:34.773Z,45.13
2023-04-06T22:47:02.299Z,45.22
2023-04-06T22:49:31.371Z,45.27
2023-04-06T22:51:58.880Z,45.76
2023-04-06T22:54:27.052Z,45.50
2023-04-06T22:56:54.895Z,45.76
2023-04-06T22:59:22.433Z,45.01
2023-04-06T23:01:50.076Z,44.38
2023-04-06T23:04:18.062Z,44.68
2023-04-06T23:06:47.116Z,44.40
2023-04-06T23:09:14.707Z,44.45
2023-04-06T23:11:42.231Z,44.05
2023-04-06T23:14:09.728Z,44.42
2023-04-06T23:16:37.287Z,43.69
2023-04-06T23:19:04.858Z,43.64
2023-04-06T23:21:33.231Z,43.40
2023-04-06T23:24:02.578Z,43.75
2023-04-06T23:26:30.531Z,44.54
2023-04-06T23:28:58.095Z,44.68
2023-04-06T23:31:25.769Z,44.79
2023-04-06T23:33:53.278Z,45.12
2023-04-06T23:36:20.847Z,45.23
2023-04-06T23:38:48.349Z,45.66
2023-04-06T23:41:17.228Z,46.08
2023-04-06T23:43:44.831Z,45.99
2023-04-06T23:46:16.881Z,46.69
2023-04-06T23:48:44.449Z,46.38
2023-04-06T23:51:12.236Z,47.25
2023-04-06T23:53:39.785Z,47.34
2023-04-06T23:56:07.676Z,47.39
2023-04-06T23:58:36.561Z,47.62
